»·PEaware :: TC-MSM L88-KSBP

TC-MSM :: L88-KSBP

FLIGHT INFORMATION

Flight Status: Arrived
Operator: Privately registered:
Turkey
More flights under this callsign
Pilot: Derin Hakan K. (22511)
Aircraft: CESSNA 182 SKYLANE
(C182)
More flights by this aircraft type
Origin: L88 New Cuyama
United States
Destination: KSBP San Luis Co Regl
United States
More flights between these airports :: More routes between these airports
Route: L88 KSBP
File this flight plan on PilotEdge
Remarks: CAT-2
Altitude:
(Current/Filed)
8,000ft
Speed:
(Current/Filed)
140kts
Departed: 18-Dec-18 09:38 AM
Arrived: 18-Dec-18 10:05 AM
Distance/Time
Traveled:
50nm/0:27
Distance/Time
To Go:
Arrived

Flight Plot

Page will automatically refresh every two minutes.


Map Options




Map Legend


Flown Route
Filed Route
Departure Airport
Arrival Airport
Navaid (VOR, NDB)
Fix

Horizontal Profiles

Position Reports

Time Latitude Longitude Heading Altitude Ground
Speed
18-Dec-18 09:24 34.939887 -119.693604 23 2206ft 0kts
18-Dec-18 09:25 34.939888 -119.693603 23 2206ft 0kts
18-Dec-18 09:26 34.939889 -119.693603 23 2206ft 0kts
18-Dec-18 09:27 34.939890 -119.693602 23 2206ft 0kts
18-Dec-18 09:28 34.939891 -119.693602 23 2206ft 0kts
18-Dec-18 09:29 34.939892 -119.693601 23 2206ft 0kts
18-Dec-18 09:30 34.939893 -119.693601 23 2206ft 0kts
18-Dec-18 09:31 34.939894 -119.693600 23 2206ft 0kts
18-Dec-18 09:32 34.939895 -119.693600 23 2206ft 0kts
18-Dec-18 09:33 34.939896 -119.693599 23 2206ft 0kts
18-Dec-18 09:34 34.939782 -119.693659 23 2206ft 0kts
18-Dec-18 09:35 34.939642 -119.693243 172 2206ft 0kts
18-Dec-18 09:36 34.938151 -119.690228 115 2206ft 26kts
18-Dec-18 09:37 34.937146 -119.687545 294 2207ft 73kts
18-Dec-18 09:38 34.947101 -119.714746 287 3294ft 92kts
18-Dec-18 09:39 34.956958 -119.747350 290 4433ft 109kts
18-Dec-18 09:40 34.967804 -119.781556 290 5615ft 105kts
18-Dec-18 09:41 34.978079 -119.813961 290 6802ft 96kts
18-Dec-18 09:42 34.986208 -119.839739 289 7984ft 76kts
18-Dec-18 09:43 34.998163 -119.877334 291 7999ft 139kts
18-Dec-18 09:44 35.012509 -119.922653 291 8001ft 146kts
18-Dec-18 09:45 35.027257 -119.969402 291 7999ft 147kts
18-Dec-18 09:46 35.042399 -120.017441 291 7344ft 146kts
18-Dec-18 09:47 35.056635 -120.062701 291 6349ft 141kts
18-Dec-18 09:48 35.070176 -120.105869 290 5908ft 136kts
18-Dec-18 09:49 35.083778 -120.149257 290 5401ft 132kts
18-Dec-18 09:50 35.096856 -120.191038 290 4886ft 130kts
18-Dec-18 09:51 35.109776 -120.232376 290 4388ft 130kts
18-Dec-18 09:52 35.122625 -120.273544 290 4006ft 123kts
18-Dec-18 09:53 35.134227 -120.310770 290 3852ft 119kts
18-Dec-18 09:54 35.145922 -120.348326 290 3428ft 117kts
18-Dec-18 09:55 35.157477 -120.385484 290 2829ft 115kts
18-Dec-18 09:56 35.167921 -120.419104 290 2393ft 103kts
18-Dec-18 09:57 35.178261 -120.452437 290 2104ft 103kts
18-Dec-18 09:58 35.183963 -120.485926 273 1903ft 99kts
18-Dec-18 09:59 35.185059 -120.517484 273 1877ft 87kts
18-Dec-18 10:00 35.190490 -120.550590 289 1789ft 106kts
18-Dec-18 10:01 35.205019 -120.583820 302 1357ft 111kts
18-Dec-18 10:02 35.220760 -120.611644 304 853ft 93kts
18-Dec-18 10:03 35.234587 -120.636139 305 222ft 76kts
18-Dec-18 10:04 35.239833 -120.644199 37 215ft 1kts
18-Dec-18 10:05 35.239903 -120.644134 37 215ft 0kts
18-Dec-18 10:06 35.239960 -120.644082 34 215ft 2kts
18-Dec-18 10:07 35.240494 -120.644637 331 215ft 7kts
18-Dec-18 10:08 35.241011 -120.644244 36 215ft 0kts
18-Dec-18 10:09 35.241012 -120.644243 36 215ft 0kts
18-Dec-18 10:10 35.241012 -120.644242 36 215ft 0kts
18-Dec-18 10:11 35.241013 -120.644241 36 215ft 0kts
18-Dec-18 10:12 35.241014 -120.644241 36 215ft 0kts
18-Dec-18 10:13 35.241014 -120.644241 36 215ft 0kts
18-Dec-18 10:14 35.241014 -120.644241 36 215ft 0kts
18-Dec-18 10:15 35.241014 -120.644241 36 215ft 0kts
18-Dec-18 10:16 35.241014 -120.644241 36 215ft 0kts
18-Dec-18 10:17 35.241014 -120.644241 36 215ft 0kts

Navigation Log

Ident Type
Flight plan parsing failed, navigation log unavailable